sensor_id;sensor_type;location;lat;lon;timestamp;P1;durP1;ratioP1;P2;durP2;ratioP2
39400;SDS011;75540;50.000;7.360;2024-02-28T00:01:15;52.03;;;21.00;;
39400;SDS011;75540;50.000;7.360;2024-02-28T00:03:44;45.00;;;20.60;;
39400;SDS011;75540;50.000;7.360;2024-02-28T00:06:15;46.90;;;22.30;;
39400;SDS011;75540;50.000;7.360;2024-02-28T00:08:44;51.50;;;21.92;;
39400;SDS011;75540;50.000;7.360;2024-02-28T00:11:12;55.50;;;23.75;;
39400;SDS011;75540;50.000;7.360;2024-02-28T00:13:41;54.83;;;23.90;;
39400;SDS011;75540;50.000;7.360;2024-02-28T00:16:09;47.47;;;21.63;;
39400;SDS011;75540;50.000;7.360;2024-02-28T00:18:39;43.42;;;21.38;;
39400;SDS011;75540;50.000;7.360;2024-02-28T00:21:08;45.45;;;20.65;;
39400;SDS011;75540;50.000;7.360;2024-02-28T00:23:36;50.00;;;21.27;;
39400;SDS011;75540;50.000;7.360;2024-02-28T00:26:04;57.53;;;21.55;;
39400;SDS011;75540;50.000;7.360;2024-02-28T00:28:33;53.33;;;22.92;;
39400;SDS011;75540;50.000;7.360;2024-02-28T00:31:02;46.83;;;21.15;;
39400;SDS011;75540;50.000;7.360;2024-02-28T00:33:31;51.25;;;21.98;;
39400;SDS011;75540;50.000;7.360;2024-02-28T00:36:01;50.35;;;22.20;;
39400;SDS011;75540;50.000;7.360;2024-02-28T00:38:30;44.42;;;20.83;;
39400;SDS011;75540;50.000;7.360;2024-02-28T00:40:58;52.97;;;22.90;;
39400;SDS011;75540;50.000;7.360;2024-02-28T00:43:26;49.08;;;22.05;;
39400;SDS011;75540;50.000;7.360;2024-02-28T00:45:55;49.03;;;22.42;;
39400;SDS011;75540;50.000;7.360;2024-02-28T00:48:25;50.92;;;21.52;;
39400;SDS011;75540;50.000;7.360;2024-02-28T00:50:54;47.75;;;21.20;;
39400;SDS011;75540;50.000;7.360;2024-02-28T00:53:24;49.25;;;21.77;;
39400;SDS011;75540;50.000;7.360;2024-02-28T00:55:53;51.40;;;20.95;;
39400;SDS011;75540;50.000;7.360;2024-02-28T00:58:25;51.25;;;21.75;;
39400;SDS011;75540;50.000;7.360;2024-02-28T01:00:57;48.42;;;20.80;;
39400;SDS011;75540;50.000;7.360;2024-02-28T01:03:28;54.88;;;23.48;;
39400;SDS011;75540;50.000;7.360;2024-02-28T01:05:57;42.13;;;20.23;;
39400;SDS011;75540;50.000;7.360;2024-02-28T01:08:29;46.03;;;21.45;;
39400;SDS011;75540;50.000;7.360;2024-02-28T01:10:58;39.38;;;17.40;;
39400;SDS011;75540;50.000;7.360;2024-02-28T01:13:27;44.45;;;20.02;;
39400;SDS011;75540;50.000;7.360;2024-02-28T01:15:56;49.25;;;19.63;;
39400;SDS011;75540;50.000;7.360;2024-02-28T01:18:29;42.80;;;19.67;;
39400;SDS011;75540;50.000;7.360;2024-02-28T01:20:59;49.05;;;20.63;;
39400;SDS011;75540;50.000;7.360;2024-02-28T01:23:29;48.35;;;21.23;;
39400;SDS011;75540;50.000;7.360;2024-02-28T01:25:58;52.03;;;21.15;;
39400;SDS011;75540;50.000;7.360;2024-02-28T01:28:30;48.55;;;21.27;;
39400;SDS011;75540;50.000;7.360;2024-02-28T01:30:58;45.30;;;20.08;;
39400;SDS011;75540;50.000;7.360;2024-02-28T01:33:28;51.45;;;21.65;;
39400;SDS011;75540;50.000;7.360;2024-02-28T01:35:57;63.15;;;23.42;;
39400;SDS011;75540;50.000;7.360;2024-02-28T01:38:26;47.67;;;20.08;;
39400;SDS011;75540;50.000;7.360;2024-02-28T01:40:56;41.72;;;20.13;;
39400;SDS011;75540;50.000;7.360;2024-02-28T01:43:24;43.92;;;18.77;;
39400;SDS011;75540;50.000;7.360;2024-02-28T01:45:53;46.05;;;20.50;;
39400;SDS011;75540;50.000;7.360;2024-02-28T01:48:21;47.60;;;20.02;;
39400;SDS011;75540;50.000;7.360;2024-02-28T01:50:50;42.22;;;19.35;;
39400;SDS011;75540;50.000;7.360;2024-02-28T01:53:18;44.70;;;18.65;;
39400;SDS011;75540;50.000;7.360;2024-02-28T01:55:47;50.80;;;20.05;;
39400;SDS011;75540;50.000;7.360;2024-02-28T01:58:17;46.05;;;19.25;;
39400;SDS011;75540;50.000;7.360;2024-02-28T02:00:45;41.70;;;18.27;;
39400;SDS011;75540;50.000;7.360;2024-02-28T02:03:15;42.30;;;19.15;;
39400;SDS011;75540;50.000;7.360;2024-02-28T02:05:44;44.72;;;19.70;;
39400;SDS011;75540;50.000;7.360;2024-02-28T02:08:12;48.08;;;19.30;;
39400;SDS011;75540;50.000;7.360;2024-02-28T02:10:41;50.25;;;21.52;;
39400;SDS011;75540;50.000;7.360;2024-02-28T02:13:10;44.72;;;18.83;;
39400;SDS011;75540;50.000;7.360;2024-02-28T02:15:40;45.88;;;20.73;;
39400;SDS011;75540;50.000;7.360;2024-02-28T02:18:08;44.70;;;20.10;;
39400;SDS011;75540;50.000;7.360;2024-02-28T02:20:38;47.90;;;19.50;;
39400;SDS011;75540;50.000;7.360;2024-02-28T02:23:16;54.65;;;23.05;;
39400;SDS011;75540;50.000;7.360;2024-02-28T02:25:45;50.53;;;20.30;;
39400;SDS011;75540;50.000;7.360;2024-02-28T02:28:14;44.40;;;19.02;;
39400;SDS011;75540;50.000;7.360;2024-02-28T02:30:43;44.63;;;19.48;;
39400;SDS011;75540;50.000;7.360;2024-02-28T02:33:12;49.03;;;20.48;;
39400;SDS011;75540;50.000;7.360;2024-02-28T02:35:40;42.95;;;19.10;;
39400;SDS011;75540;50.000;7.360;2024-02-28T02:38:08;47.70;;;20.40;;
39400;SDS011;75540;50.000;7.360;2024-02-28T02:40:38;51.17;;;20.70;;
39400;SDS011;75540;50.000;7.360;2024-02-28T02:43:07;47.15;;;19.30;;
39400;SDS011;75540;50.000;7.360;2024-02-28T02:45:36;44.60;;;19.70;;
39400;SDS011;75540;50.000;7.360;2024-02-28T02:48:05;79.43;;;24.65;;
39400;SDS011;75540;50.000;7.360;2024-02-28T02:50:33;66.00;;;24.17;;
39400;SDS011;75540;50.000;7.360;2024-02-28T02:53:02;60.45;;;23.42;;
39400;SDS011;75540;50.000;7.360;2024-02-28T02:55:31;50.85;;;23.02;;
39400;SDS011;75540;50.000;7.360;2024-02-28T02:58:01;66.45;;;22.80;;
39400;SDS011;75540;50.000;7.360;2024-02-28T03:00:29;50.67;;;22.05;;
39400;SDS011;75540;50.000;7.360;2024-02-28T03:03:01;53.60;;;22.05;;
39400;SDS011;75540;50.000;7.360;2024-02-28T03:05:29;45.67;;;19.88;;
39400;SDS011;75540;50.000;7.360;2024-02-28T03:07:58;55.25;;;18.88;;
39400;SDS011;75540;50.000;7.360;2024-02-28T03:10:26;56.38;;;21.58;;
39400;SDS011;75540;50.000;7.360;2024-02-28T03:12:55;58.72;;;21.25;;
39400;SDS011;75540;50.000;7.360;2024-02-28T03:15:25;60.83;;;21.25;;
39400;SDS011;75540;50.000;7.360;2024-02-28T03:17:54;68.35;;;18.58;;
39400;SDS011;75540;50.000;7.360;2024-02-28T03:20:22;65.75;;;24.10;;
39400;SDS011;75540;50.000;7.360;2024-02-28T03:22:52;45.70;;;20.67;;
39400;SDS011;75540;50.000;7.360;2024-02-28T03:25:20;43.63;;;19.95;;
39400;SDS011;75540;50.000;7.360;2024-02-28T03:27:49;48.45;;;20.90;;
39400;SDS011;75540;50.000;7.360;2024-02-28T03:30:18;59.72;;;20.75;;
39400;SDS011;75540;50.000;7.360;2024-02-28T03:32:47;46.38;;;20.52;;
39400;SDS011;75540;50.000;7.360;2024-02-28T03:35:16;48.53;;;20.45;;
39400;SDS011;75540;50.000;7.360;2024-02-28T03:37:44;51.92;;;21.13;;
39400;SDS011;75540;50.000;7.360;2024-02-28T03:40:13;49.47;;;22.33;;
39400;SDS011;75540;50.000;7.360;2024-02-28T03:42:42;52.45;;;23.58;;
39400;SDS011;75540;50.000;7.360;2024-02-28T03:45:10;51.72;;;22.05;;
39400;SDS011;75540;50.000;7.360;2024-02-28T03:47:39;51.63;;;21.65;;
39400;SDS011;75540;50.000;7.360;2024-02-28T03:50:09;65.07;;;21.50;;
39400;SDS011;75540;50.000;7.360;2024-02-28T03:52:37;61.22;;;23.60;;
39400;SDS011;75540;50.000;7.360;2024-02-28T03:55:06;52.90;;;21.70;;
39400;SDS011;75540;50.000;7.360;2024-02-28T03:57:34;59.75;;;23.42;;
39400;SDS011;75540;50.000;7.360;2024-02-28T04:00:04;53.13;;;21.30;;
39400;SDS011;75540;50.000;7.360;2024-02-28T04:02:40;49.00;;;20.80;;
39400;SDS011;75540;50.000;7.360;2024-02-28T04:05:10;48.20;;;20.92;;
39400;SDS011;75540;50.000;7.360;2024-02-28T04:07:38;48.30;;;20.33;;
39400;SDS011;75540;50.000;7.360;2024-02-28T04:10:08;42.33;;;17.67;;
39400;SDS011;75540;50.000;7.360;2024-02-28T04:12:38;45.63;;;19.73;;
39400;SDS011;75540;50.000;7.360;2024-02-28T04:15:06;43.38;;;21.27;;
39400;SDS011;75540;50.000;7.360;2024-02-28T04:17:39;49.10;;;21.40;;
39400;SDS011;75540;50.000;7.360;2024-02-28T04:20:10;48.75;;;20.42;;
39400;SDS011;75540;50.000;7.360;2024-02-28T04:22:39;50.22;;;20.30;;
39400;SDS011;75540;50.000;7.360;2024-02-28T04:25:08;49.70;;;20.08;;
39400;SDS011;75540;50.000;7.360;2024-02-28T04:27:37;50.80;;;19.92;;
39400;SDS011;75540;50.000;7.360;2024-02-28T04:30:06;44.70;;;19.13;;
39400;SDS011;75540;50.000;7.360;2024-02-28T04:32:35;63.47;;;21.98;;
39400;SDS011;75540;50.000;7.360;2024-02-28T04:35:05;95.22;;;29.33;;
39400;SDS011;75540;50.000;7.360;2024-02-28T04:37:35;88.10;;;27.05;;
39400;SDS011;75540;50.000;7.360;2024-02-28T04:40:04;57.35;;;19.25;;
39400;SDS011;75540;50.000;7.360;2024-02-28T04:42:33;98.85;;;24.35;;
39400;SDS011;75540;50.000;7.360;2024-02-28T04:45:02;43.67;;;19.35;;
39400;SDS011;75540;50.000;7.360;2024-02-28T04:47:31;79.55;;;24.13;;
39400;SDS011;75540;50.000;7.360;2024-02-28T04:50:09;88.85;;;25.77;;
39400;SDS011;75540;50.000;7.360;2024-02-28T04:52:40;61.15;;;21.63;;
39400;SDS011;75540;50.000;7.360;2024-02-28T04:55:09;55.60;;;21.17;;
39400;SDS011;75540;50.000;7.360;2024-02-28T04:57:39;43.13;;;18.20;;
39400;SDS011;75540;50.000;7.360;2024-02-28T05:00:07;48.53;;;19.95;;
39400;SDS011;75540;50.000;7.360;2024-02-28T05:02:36;68.47;;;23.80;;
39400;SDS011;75540;50.000;7.360;2024-02-28T05:05:05;64.05;;;23.08;;
39400;SDS011;75540;50.000;7.360;2024-02-28T05:07:37;56.65;;;21.67;;
39400;SDS011;75540;50.000;7.360;2024-02-28T05:10:08;58.97;;;21.48;;
39400;SDS011;75540;50.000;7.360;2024-02-28T05:12:37;84.95;;;21.83;;
39400;SDS011;75540;50.000;7.360;2024-02-28T05:15:05;57.33;;;19.75;;
39400;SDS011;75540;50.000;7.360;2024-02-28T05:17:35;55.47;;;21.42;;
39400;SDS011;75540;50.000;7.360;2024-02-28T05:20:05;61.80;;;20.38;;
39400;SDS011;75540;50.000;7.360;2024-02-28T05:22:34;66.82;;;21.58;;
39400;SDS011;75540;50.000;7.360;2024-02-28T05:25:03;70.05;;;20.73;;
39400;SDS011;75540;50.000;7.360;2024-02-28T05:27:33;57.55;;;20.38;;
39400;SDS011;75540;50.000;7.360;2024-02-28T05:30:02;39.10;;;16.00;;
39400;SDS011;75540;50.000;7.360;2024-02-28T05:32:32;54.35;;;20.58;;
39400;SDS011;75540;50.000;7.360;2024-02-28T05:35:01;45.03;;;18.05;;
39400;SDS011;75540;50.000;7.360;2024-02-28T05:37:29;49.58;;;20.42;;
39400;SDS011;75540;50.000;7.360;2024-02-28T05:40:00;43.92;;;17.00;;
39400;SDS011;75540;50.000;7.360;2024-02-28T05:42:29;45.80;;;17.63;;
39400;SDS011;75540;50.000;7.360;2024-02-28T05:45:00;64.05;;;19.25;;
39400;SDS011;75540;50.000;7.360;2024-02-28T05:47:28;51.50;;;16.98;;
39400;SDS011;75540;50.000;7.360;2024-02-28T05:49:58;64.07;;;18.10;;
39400;SDS011;75540;50.000;7.360;2024-02-28T05:52:25;123.60;;;22.02;;
39400;SDS011;75540;50.000;7.360;2024-02-28T05:54:54;55.03;;;18.55;;
39400;SDS011;75540;50.000;7.360;2024-02-28T05:57:23;56.42;;;17.45;;
39400;SDS011;75540;50.000;7.360;2024-02-28T05:59:51;47.65;;;17.77;;
39400;SDS011;75540;50.000;7.360;2024-02-28T06:02:21;59.38;;;20.73;;
39400;SDS011;75540;50.000;7.360;2024-02-28T06:04:49;64.68;;;21.20;;
39400;SDS011;75540;50.000;7.360;2024-02-28T06:07:19;64.55;;;22.45;;
39400;SDS011;75540;50.000;7.360;2024-02-28T06:09:47;80.43;;;20.20;;
39400;SDS011;75540;50.000;7.360;2024-02-28T06:12:16;55.17;;;19.58;;
39400;SDS011;75540;50.000;7.360;2024-02-28T06:14:44;60.42;;;20.55;;
39400;SDS011;75540;50.000;7.360;2024-02-28T06:17:13;55.20;;;19.58;;
39400;SDS011;75540;50.000;7.360;2024-02-28T06:19:43;67.50;;;20.13;;
39400;SDS011;75540;50.000;7.360;2024-02-28T06:22:11;47.83;;;17.63;;
39400;SDS011;75540;50.000;7.360;2024-02-28T06:24:40;40.70;;;16.50;;
39400;SDS011;75540;50.000;7.360;2024-02-28T06:27:08;51.65;;;18.63;;
39400;SDS011;75540;50.000;7.360;2024-02-28T06:29:39;57.10;;;20.73;;
39400;SDS011;75540;50.000;7.360;2024-02-28T06:32:08;70.03;;;21.23;;
39400;SDS011;75540;50.000;7.360;2024-02-28T06:34:36;71.75;;;19.40;;
39400;SDS011;75540;50.000;7.360;2024-02-28T06:37:06;80.45;;;18.70;;
39400;SDS011;75540;50.000;7.360;2024-02-28T06:39:34;53.65;;;18.65;;
39400;SDS011;75540;50.000;7.360;2024-02-28T06:42:03;52.97;;;17.48;;
39400;SDS011;75540;50.000;7.360;2024-02-28T06:44:31;81.63;;;17.58;;
39400;SDS011;75540;50.000;7.360;2024-02-28T06:46:59;70.85;;;18.63;;
39400;SDS011;75540;50.000;7.360;2024-02-28T06:49:27;38.10;;;14.65;;
39400;SDS011;75540;50.000;7.360;2024-02-28T06:51:56;37.20;;;15.63;;
39400;SDS011;75540;50.000;7.360;2024-02-28T06:54:29;53.08;;;16.65;;
39400;SDS011;75540;50.000;7.360;2024-02-28T06:56:58;68.13;;;21.40;;
39400;SDS011;75540;50.000;7.360;2024-02-28T06:59:26;44.72;;;16.52;;
39400;SDS011;75540;50.000;7.360;2024-02-28T07:01:55;60.58;;;17.85;;
39400;SDS011;75540;50.000;7.360;2024-02-28T07:04:23;69.85;;;17.45;;
39400;SDS011;75540;50.000;7.360;2024-02-28T07:06:51;58.90;;;20.05;;
39400;SDS011;75540;50.000;7.360;2024-02-28T07:09:20;44.35;;;18.25;;
39400;SDS011;75540;50.000;7.360;2024-02-28T07:11:50;50.10;;;18.05;;
39400;SDS011;75540;50.000;7.360;2024-02-28T07:14:18;47.40;;;17.58;;
39400;SDS011;75540;50.000;7.360;2024-02-28T07:16:46;112.35;;;18.65;;
39400;SDS011;75540;50.000;7.360;2024-02-28T07:19:14;89.85;;;23.80;;
39400;SDS011;75540;50.000;7.360;2024-02-28T07:21:44;62.10;;;17.90;;
39400;SDS011;75540;50.000;7.360;2024-02-28T07:24:13;47.63;;;17.95;;
39400;SDS011;75540;50.000;7.360;2024-02-28T07:26:41;55.05;;;16.88;;
39400;SDS011;75540;50.000;7.360;2024-02-28T07:29:11;43.38;;;16.55;;
39400;SDS011;75540;50.000;7.360;2024-02-28T07:31:39;33.80;;;15.38;;
39400;SDS011;75540;50.000;7.360;2024-02-28T07:34:08;45.47;;;15.32;;
39400;SDS011;75540;50.000;7.360;2024-02-28T07:36:36;37.63;;;15.07;;
39400;SDS011;75540;50.000;7.360;2024-02-28T07:39:05;86.65;;;23.10;;
39400;SDS011;75540;50.000;7.360;2024-02-28T07:41:33;40.75;;;15.75;;
39400;SDS011;75540;50.000;7.360;2024-02-28T07:44:02;36.03;;;15.40;;
39400;SDS011;75540;50.000;7.360;2024-02-28T07:46:32;55.33;;;19.30;;
39400;SDS011;75540;50.000;7.360;2024-02-28T07:49:00;57.03;;;18.60;;
39400;SDS011;75540;50.000;7.360;2024-02-28T07:51:29;40.05;;;17.27;;
39400;SDS011;75540;50.000;7.360;2024-02-28T07:53:57;46.45;;;19.08;;
39400;SDS011;75540;50.000;7.360;2024-02-28T07:56:25;37.05;;;15.25;;
39400;SDS011;75540;50.000;7.360;2024-02-28T07:58:54;35.65;;;15.43;;
39400;SDS011;75540;50.000;7.360;2024-02-28T08:01:23;46.65;;;14.82;;
39400;SDS011;75540;50.000;7.360;2024-02-28T08:03:53;62.45;;;18.17;;
39400;SDS011;75540;50.000;7.360;2024-02-28T08:06:22;31.88;;;15.65;;
39400;SDS011;75540;50.000;7.360;2024-02-28T08:08:50;37.78;;;14.05;;
39400;SDS011;75540;50.000;7.360;2024-02-28T08:11:18;51.05;;;19.92;;
39400;SDS011;75540;50.000;7.360;2024-02-28T08:13:47;69.63;;;21.48;;
39400;SDS011;75540;50.000;7.360;2024-02-28T08:16:15;40.92;;;16.23;;
39400;SDS011;75540;50.000;7.360;2024-02-28T08:18:43;70.25;;;19.08;;
39400;SDS011;75540;50.000;7.360;2024-02-28T08:21:13;35.35;;;15.90;;
39400;SDS011;75540;50.000;7.360;2024-02-28T08:23:41;60.25;;;17.55;;
39400;SDS011;75540;50.000;7.360;2024-02-28T08:26:10;54.88;;;17.05;;
39400;SDS011;75540;50.000;7.360;2024-02-28T08:28:38;39.65;;;16.58;;
39400;SDS011;75540;50.000;7.360;2024-02-28T08:31:07;55.30;;;18.20;;
39400;SDS011;75540;50.000;7.360;2024-02-28T08:33:35;90.82;;;18.85;;
39400;SDS011;75540;50.000;7.360;2024-02-28T08:36:04;41.53;;;17.27;;
39400;SDS011;75540;50.000;7.360;2024-02-28T08:38:34;114.57;;;21.33;;
39400;SDS011;75540;50.000;7.360;2024-02-28T08:41:05;37.13;;;14.57;;
39400;SDS011;75540;50.000;7.360;2024-02-28T08:43:37;38.70;;;16.52;;
39400;SDS011;75540;50.000;7.360;2024-02-28T08:46:06;47.17;;;17.10;;
39400;SDS011;75540;50.000;7.360;2024-02-28T08:48:35;38.80;;;15.38;;
39400;SDS011;75540;50.000;7.360;2024-02-28T08:51:04;30.88;;;14.77;;
39400;SDS011;75540;50.000;7.360;2024-02-28T08:53:37;31.45;;;13.65;;
39400;SDS011;75540;50.000;7.360;2024-02-28T08:56:06;32.90;;;12.40;;
39400;SDS011;75540;50.000;7.360;2024-02-28T08:58:34;27.55;;;13.98;;
39400;SDS011;75540;50.000;7.360;2024-02-28T09:01:04;36.28;;;15.27;;
39400;SDS011;75540;50.000;7.360;2024-02-28T09:03:33;37.53;;;15.68;;
39400;SDS011;75540;50.000;7.360;2024-02-28T09:06:01;39.13;;;14.45;;
39400;SDS011;75540;50.000;7.360;2024-02-28T09:08:30;30.48;;;14.10;;
39400;SDS011;75540;50.000;7.360;2024-02-28T09:11:00;43.88;;;15.45;;
39400;SDS011;75540;50.000;7.360;2024-02-28T09:13:30;49.47;;;16.65;;
39400;SDS011;75540;50.000;7.360;2024-02-28T09:15:59;33.05;;;14.90;;
39400;SDS011;75540;50.000;7.360;2024-02-28T09:18:28;33.28;;;14.90;;
39400;SDS011;75540;50.000;7.360;2024-02-28T09:20:57;35.60;;;14.48;;
39400;SDS011;75540;50.000;7.360;2024-02-28T09:23:25;47.70;;;18.92;;
39400;SDS011;75540;50.000;7.360;2024-02-28T09:25:57;35.03;;;14.18;;
39400;SDS011;75540;50.000;7.360;2024-02-28T09:28:27;25.98;;;14.05;;
39400;SDS011;75540;50.000;7.360;2024-02-28T09:30:55;30.98;;;14.80;;
39400;SDS011;75540;50.000;7.360;2024-02-28T09:33:24;32.00;;;14.75;;
39400;SDS011;75540;50.000;7.360;2024-02-28T09:35:52;26.58;;;12.82;;
39400;SDS011;75540;50.000;7.360;2024-02-28T09:38:20;30.88;;;14.48;;
39400;SDS011;75540;50.000;7.360;2024-02-28T09:40:50;28.27;;;15.05;;
39400;SDS011;75540;50.000;7.360;2024-02-28T09:43:19;29.00;;;15.00;;
39400;SDS011;75540;50.000;7.360;2024-02-28T09:45:56;31.38;;;14.02;;
39400;SDS011;75540;50.000;7.360;2024-02-28T09:48:27;29.55;;;14.52;;
39400;SDS011;75540;50.000;7.360;2024-02-28T09:50:57;30.73;;;15.82;;
39400;SDS011;75540;50.000;7.360;2024-02-28T09:53:26;24.27;;;14.27;;
39400;SDS011;75540;50.000;7.360;2024-02-28T09:55:54;29.10;;;16.40;;
39400;SDS011;75540;50.000;7.360;2024-02-28T09:58:22;26.90;;;14.65;;
39400;SDS011;75540;50.000;7.360;2024-02-28T10:00:51;23.50;;;13.18;;
39400;SDS011;75540;50.000;7.360;2024-02-28T10:03:24;28.10;;;13.88;;
39400;SDS011;75540;50.000;7.360;2024-02-28T10:05:52;28.00;;;14.50;;
39400;SDS011;75540;50.000;7.360;2024-02-28T10:08:21;27.35;;;14.00;;
39400;SDS011;75540;50.000;7.360;2024-02-28T10:10:50;29.85;;;14.85;;
39400;SDS011;75540;50.000;7.360;2024-02-28T10:13:21;30.30;;;14.45;;
39400;SDS011;75540;50.000;7.360;2024-02-28T10:15:50;24.85;;;13.95;;
39400;SDS011;75540;50.000;7.360;2024-02-28T10:18:18;26.85;;;14.60;;
39400;SDS011;75540;50.000;7.360;2024-02-28T10:20:49;24.88;;;12.57;;
39400;SDS011;75540;50.000;7.360;2024-02-28T10:23:17;27.95;;;13.23;;
39400;SDS011;75540;50.000;7.360;2024-02-28T10:25:46;31.00;;;14.15;;
39400;SDS011;75540;50.000;7.360;2024-02-28T10:28:23;30.20;;;13.55;;
39400;SDS011;75540;50.000;7.360;2024-02-28T10:30:52;28.00;;;13.93;;
39400;SDS011;75540;50.000;7.360;2024-02-28T10:33:21;30.80;;;15.25;;
39400;SDS011;75540;50.000;7.360;2024-02-28T10:35:56;29.88;;;14.65;;
39400;SDS011;75540;50.000;7.360;2024-02-28T10:38:26;28.38;;;13.43;;
39400;SDS011;75540;50.000;7.360;2024-02-28T10:40:54;28.40;;;12.48;;
39400;SDS011;75540;50.000;7.360;2024-02-28T10:43:24;26.42;;;12.93;;
39400;SDS011;75540;50.000;7.360;2024-02-28T10:45:56;26.40;;;12.70;;
39400;SDS011;75540;50.000;7.360;2024-02-28T10:48:45;27.02;;;13.20;;
39400;SDS011;75540;50.000;7.360;2024-02-28T10:51:17;31.83;;;13.52;;
39400;SDS011;75540;50.000;7.360;2024-02-28T10:54:07;30.65;;;13.25;;
39400;SDS011;75540;50.000;7.360;2024-02-28T10:56:39;31.85;;;12.88;;
39400;SDS011;75540;50.000;7.360;2024-02-28T10:59:08;33.92;;;15.35;;
39400;SDS011;75540;50.000;7.360;2024-02-28T11:01:38;34.22;;;14.93;;
39400;SDS011;75540;50.000;7.360;2024-02-28T11:04:11;34.80;;;14.80;;
39400;SDS011;75540;50.000;7.360;2024-02-28T11:06:48;35.40;;;15.15;;
39400;SDS011;75540;50.000;7.360;2024-02-28T11:09:19;39.10;;;15.43;;
39400;SDS011;75540;50.000;7.360;2024-02-28T11:11:50;37.22;;;14.07;;
39400;SDS011;75540;50.000;7.360;2024-02-28T11:14:20;35.10;;;14.60;;
39400;SDS011;75540;50.000;7.360;2024-02-28T11:17:01;30.35;;;13.07;;
39400;SDS011;75540;50.000;7.360;2024-02-28T11:19:31;36.67;;;14.32;;
39400;SDS011;75540;50.000;7.360;2024-02-28T11:22:04;34.60;;;14.40;;
39400;SDS011;75540;50.000;7.360;2024-02-28T11:24:33;33.30;;;14.07;;
39400;SDS011;75540;50.000;7.360;2024-02-28T11:27:04;30.83;;;13.98;;
39400;SDS011;75540;50.000;7.360;2024-02-28T11:29:34;32.42;;;14.68;;
39400;SDS011;75540;50.000;7.360;2024-02-28T11:32:02;32.25;;;13.07;;
39400;SDS011;75540;50.000;7.360;2024-02-28T11:34:34;33.15;;;13.90;;
39400;SDS011;75540;50.000;7.360;2024-02-28T11:37:04;30.67;;;12.88;;
39400;SDS011;75540;50.000;7.360;2024-02-28T11:39:32;31.25;;;12.55;;
39400;SDS011;75540;50.000;7.360;2024-02-28T11:47:23;30.60;;;13.02;;
39400;SDS011;75540;50.000;7.360;2024-02-28T11:49:52;28.98;;;12.73;;
39400;SDS011;75540;50.000;7.360;2024-02-28T11:52:21;27.88;;;12.63;;
39400;SDS011;75540;50.000;7.360;2024-02-28T11:54:50;26.75;;;11.98;;
39400;SDS011;75540;50.000;7.360;2024-02-28T11:57:19;26.48;;;12.02;;
39400;SDS011;75540;50.000;7.360;2024-02-28T11:59:47;17.17;;;8.93;;
39400;SDS011;75540;50.000;7.360;2024-02-28T12:02:17;23.38;;;9.70;;
39400;SDS011;75540;50.000;7.360;2024-02-28T12:04:46;21.27;;;9.60;;
39400;SDS011;75540;50.000;7.360;2024-02-28T12:07:17;18.33;;;8.70;;
39400;SDS011;75540;50.000;7.360;2024-02-28T12:09:47;12.75;;;7.03;;
39400;SDS011;75540;50.000;7.360;2024-02-28T12:12:16;20.63;;;8.55;;
39400;SDS011;75540;50.000;7.360;2024-02-28T12:14:45;16.67;;;7.60;;
39400;SDS011;75540;50.000;7.360;2024-02-28T12:17:14;14.77;;;6.82;;
39400;SDS011;75540;50.000;7.360;2024-02-28T12:19:42;17.00;;;7.47;;
39400;SDS011;75540;50.000;7.360;2024-02-28T12:22:11;17.65;;;7.53;;
39400;SDS011;75540;50.000;7.360;2024-02-28T12:24:39;16.10;;;6.78;;
39400;SDS011;75540;50.000;7.360;2024-02-28T12:27:09;12.20;;;6.20;;
39400;SDS011;75540;50.000;7.360;2024-02-28T12:29:37;14.32;;;6.45;;
39400;SDS011;75540;50.000;7.360;2024-02-28T12:32:06;14.63;;;6.22;;
39400;SDS011;75540;50.000;7.360;2024-02-28T12:34:35;16.58;;;6.63;;
39400;SDS011;75540;50.000;7.360;2024-02-28T12:37:03;18.40;;;6.60;;
39400;SDS011;75540;50.000;7.360;2024-02-28T12:39:32;14.18;;;6.88;;
39400;SDS011;75540;50.000;7.360;2024-02-28T12:42:01;15.05;;;7.35;;
39400;SDS011;75540;50.000;7.360;2024-02-28T12:44:31;15.35;;;7.40;;
39400;SDS011;75540;50.000;7.360;2024-02-28T12:46:59;15.02;;;6.78;;
39400;SDS011;75540;50.000;7.360;2024-02-28T12:49:28;14.20;;;7.28;;
39400;SDS011;75540;50.000;7.360;2024-02-28T12:51:56;17.58;;;7.63;;
39400;SDS011;75540;50.000;7.360;2024-02-28T12:54:24;18.75;;;8.05;;
39400;SDS011;75540;50.000;7.360;2024-02-28T12:56:53;19.45;;;7.88;;
39400;SDS011;75540;50.000;7.360;2024-02-28T12:59:21;12.70;;;6.03;;
39400;SDS011;75540;50.000;7.360;2024-02-28T13:01:51;12.82;;;5.68;;
39400;SDS011;75540;50.000;7.360;2024-02-28T13:04:20;8.90;;;4.30;;
39400;SDS011;75540;50.000;7.360;2024-02-28T13:06:48;7.53;;;3.90;;
39400;SDS011;75540;50.000;7.360;2024-02-28T13:09:16;8.43;;;4.20;;
39400;SDS011;75540;50.000;7.360;2024-02-28T13:11:45;8.07;;;3.20;;
39400;SDS011;75540;50.000;7.360;2024-02-28T13:14:14;8.00;;;3.42;;
39400;SDS011;75540;50.000;7.360;2024-02-28T13:16:42;10.40;;;4.05;;
39400;SDS011;75540;50.000;7.360;2024-02-28T13:19:12;9.95;;;4.15;;
39400;SDS011;75540;50.000;7.360;2024-02-28T13:21:40;11.35;;;4.43;;
39400;SDS011;75540;50.000;7.360;2024-02-28T13:24:09;10.57;;;5.25;;
39400;SDS011;75540;50.000;7.360;2024-02-28T13:26:38;11.95;;;5.85;;
39400;SDS011;75540;50.000;7.360;2024-02-28T13:29:06;11.18;;;4.90;;
39400;SDS011;75540;50.000;7.360;2024-02-28T13:31:35;10.23;;;5.22;;
39400;SDS011;75540;50.000;7.360;2024-02-28T13:34:03;10.63;;;4.50;;
39400;SDS011;75540;50.000;7.360;2024-02-28T13:36:33;10.48;;;4.70;;
39400;SDS011;75540;50.000;7.360;2024-02-28T13:39:03;10.93;;;4.68;;
39400;SDS011;75540;50.000;7.360;2024-02-28T13:41:32;13.00;;;6.03;;
39400;SDS011;75540;50.000;7.360;2024-02-28T13:44:00;12.43;;;5.28;;
39400;SDS011;75540;50.000;7.360;2024-02-28T13:46:28;13.00;;;4.93;;
39400;SDS011;75540;50.000;7.360;2024-02-28T13:48:56;11.32;;;5.20;;
39400;SDS011;75540;50.000;7.360;2024-02-28T13:51:25;8.40;;;4.20;;
39400;SDS011;75540;50.000;7.360;2024-02-28T13:53:55;10.43;;;4.75;;
39400;SDS011;75540;50.000;7.360;2024-02-28T13:56:23;11.23;;;4.72;;
39400;SDS011;75540;50.000;7.360;2024-02-28T13:58:52;10.18;;;5.03;;
39400;SDS011;75540;50.000;7.360;2024-02-28T14:01:20;9.25;;;4.10;;
39400;SDS011;75540;50.000;7.360;2024-02-28T14:03:49;8.48;;;3.90;;
39400;SDS011;75540;50.000;7.360;2024-02-28T14:06:17;9.57;;;3.53;;
39400;SDS011;75540;50.000;7.360;2024-02-28T14:08:46;10.30;;;4.43;;
39400;SDS011;75540;50.000;7.360;2024-02-28T14:11:15;7.53;;;4.13;;
39400;SDS011;75540;50.000;7.360;2024-02-28T14:13:45;10.57;;;5.05;;
39400;SDS011;75540;50.000;7.360;2024-02-28T14:16:13;10.13;;;4.70;;
39400;SDS011;75540;50.000;7.360;2024-02-28T14:18:41;10.30;;;4.90;;
39400;SDS011;75540;50.000;7.360;2024-02-28T14:21:10;9.05;;;4.55;;
39400;SDS011;75540;50.000;7.360;2024-02-28T14:23:39;12.80;;;5.20;;
39400;SDS011;75540;50.000;7.360;2024-02-28T14:26:08;10.90;;;4.80;;
39400;SDS011;75540;50.000;7.360;2024-02-28T14:28:37;11.52;;;5.68;;
39400;SDS011;75540;50.000;7.360;2024-02-28T14:31:06;10.75;;;4.80;;
39400;SDS011;75540;50.000;7.360;2024-02-28T14:33:34;11.32;;;5.07;;
39400;SDS011;75540;50.000;7.360;2024-02-28T14:36:03;10.63;;;4.85;;
39400;SDS011;75540;50.000;7.360;2024-02-28T14:38:32;13.65;;;5.80;;
39400;SDS011;75540;50.000;7.360;2024-02-28T14:41:01;14.85;;;6.00;;